Fruitvale, Canada
Current Conditions -  °F | °C
As of 7:36 AM on Wednesday 26 Nov 2014 (Local Time) from CYCG Reporting Station
Light Snow Light Snow  
Wind Chill: 32°   Ceiling: 600
Heat Index: 32°   Visibility: 0.75mi
Dew Point: 32°   Wind: 2mph
Humidity: 100%   Direction: NA
Pressure: 30.17"   Gusts: NA
Location:  49.12°N, 117.55°W
Report Text: CYCG 261536Z VRB02KT 3/4SM -SN BR VV006 00/00 A3017 RMK SN8 SLP236
Loading
Personal Weather Stations






























Interactive Weather Map New forecast layout! Learn more

10-Day Weather Forecast

Advertisements
Track Severe Weather on mobile